sensor_id;sensor_type;location;lat;lon;timestamp;P1;durP1;ratioP1;P2;durP2;ratioP2
47309;SDS011;33046;52.270;6.832;2024-03-06T00:00:55;36.25;;;30.02;;
47309;SDS011;33046;52.270;6.832;2024-03-06T00:03:02;41.15;;;32.08;;
47309;SDS011;33046;52.270;6.832;2024-03-06T00:05:09;36.67;;;29.95;;
47309;SDS011;33046;52.270;6.832;2024-03-06T00:07:16;41.13;;;31.98;;
47309;SDS011;33046;52.270;6.832;2024-03-06T00:09:23;37.92;;;31.63;;
47309;SDS011;33046;52.270;6.832;2024-03-06T00:11:30;43.95;;;33.30;;
47309;SDS011;33046;52.270;6.832;2024-03-06T00:13:37;38.72;;;31.33;;
47309;SDS011;33046;52.270;6.832;2024-03-06T00:15:44;45.70;;;33.40;;
47309;SDS011;33046;52.270;6.832;2024-03-06T00:17:52;41.30;;;32.92;;
47309;SDS011;33046;52.270;6.832;2024-03-06T00:19:59;44.95;;;33.03;;
47309;SDS011;33046;52.270;6.832;2024-03-06T00:22:06;41.60;;;32.90;;
47309;SDS011;33046;52.270;6.832;2024-03-06T00:24:13;39.53;;;33.03;;
47309;SDS011;33046;52.270;6.832;2024-03-06T00:26:21;51.13;;;34.03;;
47309;SDS011;33046;52.270;6.832;2024-03-06T00:28:27;40.80;;;34.47;;
47309;SDS011;33046;52.270;6.832;2024-03-06T00:30:34;45.53;;;34.60;;
47309;SDS011;33046;52.270;6.832;2024-03-06T00:32:41;47.03;;;34.58;;
47309;SDS011;33046;52.270;6.832;2024-03-06T00:34:49;46.72;;;35.47;;
47309;SDS011;33046;52.270;6.832;2024-03-06T00:36:56;47.47;;;35.72;;
47309;SDS011;33046;52.270;6.832;2024-03-06T00:39:03;44.47;;;34.65;;
47309;SDS011;33046;52.270;6.832;2024-03-06T00:41:10;46.00;;;35.10;;
47309;SDS011;33046;52.270;6.832;2024-03-06T00:43:16;44.20;;;33.38;;
47309;SDS011;33046;52.270;6.832;2024-03-06T00:45:24;47.92;;;35.22;;
47309;SDS011;33046;52.270;6.832;2024-03-06T00:47:30;44.95;;;35.83;;
47309;SDS011;33046;52.270;6.832;2024-03-06T00:49:37;51.20;;;37.65;;
47309;SDS011;33046;52.270;6.832;2024-03-06T00:51:45;50.55;;;34.80;;
47309;SDS011;33046;52.270;6.832;2024-03-06T00:53:53;49.75;;;36.15;;
47309;SDS011;33046;52.270;6.832;2024-03-06T00:56:00;52.03;;;36.67;;
47309;SDS011;33046;52.270;6.832;2024-03-06T00:58:07;48.00;;;36.35;;
47309;SDS011;33046;52.270;6.832;2024-03-06T01:00:14;51.47;;;36.88;;
47309;SDS011;33046;52.270;6.832;2024-03-06T01:02:21;52.00;;;35.85;;
47309;SDS011;33046;52.270;6.832;2024-03-06T01:04:28;44.17;;;36.60;;
47309;SDS011;33046;52.270;6.832;2024-03-06T01:06:35;50.47;;;35.38;;
47309;SDS011;33046;52.270;6.832;2024-03-06T01:08:43;48.97;;;36.83;;
47309;SDS011;33046;52.270;6.832;2024-03-06T01:10:50;53.38;;;37.40;;
47309;SDS011;33046;52.270;6.832;2024-03-06T01:12:57;53.67;;;39.28;;
47309;SDS011;33046;52.270;6.832;2024-03-06T01:15:04;55.90;;;36.92;;
47309;SDS011;33046;52.270;6.832;2024-03-06T01:17:11;51.42;;;37.40;;
47309;SDS011;33046;52.270;6.832;2024-03-06T01:19:18;49.30;;;37.58;;
47309;SDS011;33046;52.270;6.832;2024-03-06T01:21:25;52.47;;;37.50;;
47309;SDS011;33046;52.270;6.832;2024-03-06T01:23:32;52.13;;;38.17;;
47309;SDS011;33046;52.270;6.832;2024-03-06T01:25:40;53.45;;;37.72;;
47309;SDS011;33046;52.270;6.832;2024-03-06T01:27:47;56.75;;;37.28;;
47309;SDS011;33046;52.270;6.832;2024-03-06T01:29:54;51.97;;;36.03;;
47309;SDS011;33046;52.270;6.832;2024-03-06T01:32:01;48.45;;;36.58;;
47309;SDS011;33046;52.270;6.832;2024-03-06T01:34:08;56.13;;;38.25;;
47309;SDS011;33046;52.270;6.832;2024-03-06T01:36:15;55.05;;;36.80;;
47309;SDS011;33046;52.270;6.832;2024-03-06T01:38:21;46.33;;;36.70;;
47309;SDS011;33046;52.270;6.832;2024-03-06T01:40:28;52.10;;;36.08;;
47309;SDS011;33046;52.270;6.832;2024-03-06T01:42:36;49.97;;;36.90;;
47309;SDS011;33046;52.270;6.832;2024-03-06T01:44:46;51.65;;;37.08;;
47309;SDS011;33046;52.270;6.832;2024-03-06T01:46:53;56.47;;;39.05;;
47309;SDS011;33046;52.270;6.832;2024-03-06T01:49:00;54.88;;;38.28;;
47309;SDS011;33046;52.270;6.832;2024-03-06T01:51:08;47.67;;;36.35;;
47309;SDS011;33046;52.270;6.832;2024-03-06T01:53:15;50.38;;;36.72;;
47309;SDS011;33046;52.270;6.832;2024-03-06T01:55:24;52.70;;;38.47;;
47309;SDS011;33046;52.270;6.832;2024-03-06T01:57:31;53.65;;;38.90;;
47309;SDS011;33046;52.270;6.832;2024-03-06T01:59:39;58.05;;;37.88;;
47309;SDS011;33046;52.270;6.832;2024-03-06T02:01:47;51.35;;;36.63;;
47309;SDS011;33046;52.270;6.832;2024-03-06T02:03:55;47.17;;;37.00;;
47309;SDS011;33046;52.270;6.832;2024-03-06T02:06:02;48.92;;;36.55;;
47309;SDS011;33046;52.270;6.832;2024-03-06T02:08:10;58.53;;;39.45;;
47309;SDS011;33046;52.270;6.832;2024-03-06T02:10:17;53.40;;;36.45;;
47309;SDS011;33046;52.270;6.832;2024-03-06T02:12:24;55.78;;;39.00;;
47309;SDS011;33046;52.270;6.832;2024-03-06T02:14:31;58.70;;;40.85;;
47309;SDS011;33046;52.270;6.832;2024-03-06T02:16:39;54.60;;;37.80;;
47309;SDS011;33046;52.270;6.832;2024-03-06T02:18:52;52.13;;;40.58;;
47309;SDS011;33046;52.270;6.832;2024-03-06T02:23:08;54.38;;;36.88;;
47309;SDS011;33046;52.270;6.832;2024-03-06T02:25:15;59.25;;;37.83;;
47309;SDS011;33046;52.270;6.832;2024-03-06T02:27:22;56.70;;;38.83;;
47309;SDS011;33046;52.270;6.832;2024-03-06T02:29:29;55.40;;;40.08;;
47309;SDS011;33046;52.270;6.832;2024-03-06T02:31:36;54.80;;;39.50;;
47309;SDS011;33046;52.270;6.832;2024-03-06T02:33:43;58.78;;;39.63;;
47309;SDS011;33046;52.270;6.832;2024-03-06T02:35:50;61.08;;;39.10;;
47309;SDS011;33046;52.270;6.832;2024-03-06T02:37:59;60.67;;;41.20;;
47309;SDS011;33046;52.270;6.832;2024-03-06T02:40:07;60.03;;;38.35;;
47309;SDS011;33046;52.270;6.832;2024-03-06T02:42:14;60.70;;;38.88;;
47309;SDS011;33046;52.270;6.832;2024-03-06T02:44:21;64.50;;;41.65;;
47309;SDS011;33046;52.270;6.832;2024-03-06T02:46:28;66.03;;;41.72;;
47309;SDS011;33046;52.270;6.832;2024-03-06T02:48:35;75.93;;;41.13;;
47309;SDS011;33046;52.270;6.832;2024-03-06T02:50:42;65.70;;;40.88;;
47309;SDS011;33046;52.270;6.832;2024-03-06T02:52:49;54.03;;;41.22;;
47309;SDS011;33046;52.270;6.832;2024-03-06T02:54:57;67.82;;;40.45;;
47309;SDS011;33046;52.270;6.832;2024-03-06T02:57:04;65.82;;;41.72;;
47309;SDS011;33046;52.270;6.832;2024-03-06T02:59:11;60.90;;;41.13;;
47309;SDS011;33046;52.270;6.832;2024-03-06T03:01:18;56.60;;;37.90;;
47309;SDS011;33046;52.270;6.832;2024-03-06T03:03:24;56.30;;;41.03;;
47309;SDS011;33046;52.270;6.832;2024-03-06T03:05:31;60.83;;;41.28;;
47309;SDS011;33046;52.270;6.832;2024-03-06T03:07:38;59.47;;;39.05;;
47309;SDS011;33046;52.270;6.832;2024-03-06T03:09:45;57.88;;;41.65;;
47309;SDS011;33046;52.270;6.832;2024-03-06T03:11:53;60.10;;;39.85;;
47309;SDS011;33046;52.270;6.832;2024-03-06T03:14:00;62.20;;;41.13;;
47309;SDS011;33046;52.270;6.832;2024-03-06T03:16:07;59.17;;;39.53;;
47309;SDS011;33046;52.270;6.832;2024-03-06T03:18:22;59.28;;;41.47;;
47309;SDS011;33046;52.270;6.832;2024-03-06T03:20:28;71.60;;;43.25;;
47309;SDS011;33046;52.270;6.832;2024-03-06T03:22:35;60.20;;;41.13;;
47309;SDS011;33046;52.270;6.832;2024-03-06T03:24:42;63.75;;;40.58;;
47309;SDS011;33046;52.270;6.832;2024-03-06T03:26:49;58.83;;;40.17;;
47309;SDS011;33046;52.270;6.832;2024-03-06T03:28:57;62.33;;;42.13;;
47309;SDS011;33046;52.270;6.832;2024-03-06T03:31:05;62.10;;;39.78;;
47309;SDS011;33046;52.270;6.832;2024-03-06T03:33:12;59.95;;;42.20;;
47309;SDS011;33046;52.270;6.832;2024-03-06T03:35:19;61.20;;;40.13;;
47309;SDS011;33046;52.270;6.832;2024-03-06T03:37:26;68.10;;;41.33;;
47309;SDS011;33046;52.270;6.832;2024-03-06T03:39:33;55.78;;;40.97;;
47309;SDS011;33046;52.270;6.832;2024-03-06T03:41:42;57.33;;;38.38;;
47309;SDS011;33046;52.270;6.832;2024-03-06T03:43:49;60.38;;;37.80;;
47309;SDS011;33046;52.270;6.832;2024-03-06T03:45:57;56.70;;;39.63;;
47309;SDS011;33046;52.270;6.832;2024-03-06T03:48:05;67.05;;;40.50;;
47309;SDS011;33046;52.270;6.832;2024-03-06T03:50:12;64.50;;;38.90;;
47309;SDS011;33046;52.270;6.832;2024-03-06T03:52:19;56.60;;;37.97;;
47309;SDS011;33046;52.270;6.832;2024-03-06T03:54:25;60.78;;;39.40;;
47309;SDS011;33046;52.270;6.832;2024-03-06T03:56:32;55.50;;;37.00;;
47309;SDS011;33046;52.270;6.832;2024-03-06T03:58:40;65.00;;;40.15;;
47309;SDS011;33046;52.270;6.832;2024-03-06T04:00:47;59.08;;;37.72;;
47309;SDS011;33046;52.270;6.832;2024-03-06T04:02:56;54.95;;;39.40;;
47309;SDS011;33046;52.270;6.832;2024-03-06T04:05:03;61.38;;;38.03;;
47309;SDS011;33046;52.270;6.832;2024-03-06T04:07:10;54.58;;;38.90;;
47309;SDS011;33046;52.270;6.832;2024-03-06T04:09:16;56.22;;;37.28;;
47309;SDS011;33046;52.270;6.832;2024-03-06T04:11:23;58.92;;;37.97;;
47309;SDS011;33046;52.270;6.832;2024-03-06T04:13:30;56.70;;;37.90;;
47309;SDS011;33046;52.270;6.832;2024-03-06T04:15:42;55.15;;;39.25;;
47309;SDS011;33046;52.270;6.832;2024-03-06T04:17:49;54.42;;;38.10;;
47309;SDS011;33046;52.270;6.832;2024-03-06T04:19:58;56.90;;;36.03;;
47309;SDS011;33046;52.270;6.832;2024-03-06T04:22:05;57.60;;;39.80;;
47309;SDS011;33046;52.270;6.832;2024-03-06T04:24:11;59.70;;;37.40;;
47309;SDS011;33046;52.270;6.832;2024-03-06T04:26:18;62.05;;;39.63;;
47309;SDS011;33046;52.270;6.832;2024-03-06T04:28:25;56.10;;;38.92;;
47309;SDS011;33046;52.270;6.832;2024-03-06T04:30:32;54.40;;;36.65;;
47309;SDS011;33046;52.270;6.832;2024-03-06T04:32:39;60.50;;;38.67;;
47309;SDS011;33046;52.270;6.832;2024-03-06T04:34:46;55.53;;;38.05;;
47309;SDS011;33046;52.270;6.832;2024-03-06T04:36:54;59.92;;;38.25;;
47309;SDS011;33046;52.270;6.832;2024-03-06T04:39:01;54.33;;;38.13;;
47309;SDS011;33046;52.270;6.832;2024-03-06T04:41:08;60.70;;;40.67;;
47309;SDS011;33046;52.270;6.832;2024-03-06T04:43:15;62.08;;;39.88;;
47309;SDS011;33046;52.270;6.832;2024-03-06T04:45:22;55.97;;;39.15;;
47309;SDS011;33046;52.270;6.832;2024-03-06T04:47:29;59.97;;;37.80;;
47309;SDS011;33046;52.270;6.832;2024-03-06T04:49:36;59.22;;;37.72;;
47309;SDS011;33046;52.270;6.832;2024-03-06T04:51:42;56.33;;;38.65;;
47309;SDS011;33046;52.270;6.832;2024-03-06T04:53:51;61.20;;;38.97;;
47309;SDS011;33046;52.270;6.832;2024-03-06T04:55:57;61.15;;;36.72;;
47309;SDS011;33046;52.270;6.832;2024-03-06T04:58:04;59.25;;;37.58;;
47309;SDS011;33046;52.270;6.832;2024-03-06T05:00:12;73.70;;;41.30;;
47309;SDS011;33046;52.270;6.832;2024-03-06T05:02:19;58.30;;;36.78;;
47309;SDS011;33046;52.270;6.832;2024-03-06T05:04:26;57.65;;;36.25;;
47309;SDS011;33046;52.270;6.832;2024-03-06T05:06:50;56.80;;;35.88;;
47309;SDS011;33046;52.270;6.832;2024-03-06T05:09:16;59.65;;;38.65;;
47309;SDS011;33046;52.270;6.832;2024-03-06T05:11:40;61.08;;;37.55;;
47309;SDS011;33046;52.270;6.832;2024-03-06T05:14:05;57.72;;;38.45;;
47309;SDS011;33046;52.270;6.832;2024-03-06T05:16:29;53.67;;;36.60;;
47309;SDS011;33046;52.270;6.832;2024-03-06T05:18:54;56.67;;;35.38;;
47309;SDS011;33046;52.270;6.832;2024-03-06T05:21:18;56.25;;;36.67;;
47309;SDS011;33046;52.270;6.832;2024-03-06T05:23:44;55.78;;;36.65;;
47309;SDS011;33046;52.270;6.832;2024-03-06T05:26:10;64.70;;;37.58;;
47309;SDS011;33046;52.270;6.832;2024-03-06T05:28:34;52.90;;;35.75;;
47309;SDS011;33046;52.270;6.832;2024-03-06T05:30:58;55.72;;;36.35;;
47309;SDS011;33046;52.270;6.832;2024-03-06T05:33:23;56.85;;;37.17;;
47309;SDS011;33046;52.270;6.832;2024-03-06T05:35:47;53.90;;;35.72;;
47309;SDS011;33046;52.270;6.832;2024-03-06T05:38:12;47.40;;;34.92;;
47309;SDS011;33046;52.270;6.832;2024-03-06T05:40:36;54.28;;;33.92;;
47309;SDS011;33046;52.270;6.832;2024-03-06T05:43:02;51.72;;;36.30;;
47309;SDS011;33046;52.270;6.832;2024-03-06T05:45:27;52.72;;;35.67;;
47309;SDS011;33046;52.270;6.832;2024-03-06T05:47:51;56.92;;;35.22;;
47309;SDS011;33046;52.270;6.832;2024-03-06T05:50:16;53.40;;;34.45;;
47309;SDS011;33046;52.270;6.832;2024-03-06T05:52:40;56.28;;;36.88;;
47309;SDS011;33046;52.270;6.832;2024-03-06T05:55:05;50.63;;;35.45;;
47309;SDS011;33046;52.270;6.832;2024-03-06T05:57:30;54.60;;;35.90;;
47309;SDS011;33046;52.270;6.832;2024-03-06T05:59:55;58.17;;;36.30;;
47309;SDS011;33046;52.270;6.832;2024-03-06T06:02:02;50.90;;;35.45;;
47309;SDS011;33046;52.270;6.832;2024-03-06T06:04:09;53.35;;;34.13;;
47309;SDS011;33046;52.270;6.832;2024-03-06T06:06:16;46.97;;;34.63;;
47309;SDS011;33046;52.270;6.832;2024-03-06T06:08:23;48.30;;;34.05;;
47309;SDS011;33046;52.270;6.832;2024-03-06T06:10:30;51.60;;;32.05;;
47309;SDS011;33046;52.270;6.832;2024-03-06T06:12:37;52.72;;;35.22;;
47309;SDS011;33046;52.270;6.832;2024-03-06T06:14:44;48.85;;;33.30;;
47309;SDS011;33046;52.270;6.832;2024-03-06T06:16:52;48.58;;;32.78;;
47309;SDS011;33046;52.270;6.832;2024-03-06T06:18:59;41.65;;;31.42;;
47309;SDS011;33046;52.270;6.832;2024-03-06T06:21:06;50.42;;;34.60;;
47309;SDS011;33046;52.270;6.832;2024-03-06T06:23:13;52.30;;;33.75;;
47309;SDS011;33046;52.270;6.832;2024-03-06T06:25:19;46.40;;;35.85;;
47309;SDS011;33046;52.270;6.832;2024-03-06T06:27:26;44.83;;;33.53;;
47309;SDS011;33046;52.270;6.832;2024-03-06T06:29:33;47.50;;;32.17;;
47309;SDS011;33046;52.270;6.832;2024-03-06T06:31:40;52.28;;;33.72;;
47309;SDS011;33046;52.270;6.832;2024-03-06T06:33:48;52.20;;;35.72;;
47309;SDS011;33046;52.270;6.832;2024-03-06T06:35:55;48.25;;;33.28;;
47309;SDS011;33046;52.270;6.832;2024-03-06T06:38:02;54.00;;;35.80;;
47309;SDS011;33046;52.270;6.832;2024-03-06T06:40:09;52.92;;;34.67;;
47309;SDS011;33046;52.270;6.832;2024-03-06T06:42:17;47.53;;;34.03;;
47309;SDS011;33046;52.270;6.832;2024-03-06T06:44:24;49.97;;;33.53;;
47309;SDS011;33046;52.270;6.832;2024-03-06T06:46:30;56.30;;;37.95;;
47309;SDS011;33046;52.270;6.832;2024-03-06T06:48:37;47.97;;;35.13;;
47309;SDS011;33046;52.270;6.832;2024-03-06T06:50:45;50.67;;;35.50;;
47309;SDS011;33046;52.270;6.832;2024-03-06T06:52:52;52.58;;;34.63;;
47309;SDS011;33046;52.270;6.832;2024-03-06T06:54:59;49.10;;;34.03;;
47309;SDS011;33046;52.270;6.832;2024-03-06T06:57:06;44.38;;;32.40;;
47309;SDS011;33046;52.270;6.832;2024-03-06T06:59:13;46.60;;;35.67;;
47309;SDS011;33046;52.270;6.832;2024-03-06T07:01:20;45.67;;;33.35;;
47309;SDS011;33046;52.270;6.832;2024-03-06T07:03:27;46.28;;;34.95;;
47309;SDS011;33046;52.270;6.832;2024-03-06T07:05:33;45.75;;;33.55;;
47309;SDS011;33046;52.270;6.832;2024-03-06T07:07:42;48.75;;;34.78;;
47309;SDS011;33046;52.270;6.832;2024-03-06T07:09:48;50.17;;;36.25;;
47309;SDS011;33046;52.270;6.832;2024-03-06T07:11:55;47.95;;;33.88;;
47309;SDS011;33046;52.270;6.832;2024-03-06T07:14:02;46.85;;;35.17;;
47309;SDS011;33046;52.270;6.832;2024-03-06T07:16:09;54.15;;;34.42;;
47309;SDS011;33046;52.270;6.832;2024-03-06T07:18:16;53.95;;;37.13;;
47309;SDS011;33046;52.270;6.832;2024-03-06T07:20:23;64.15;;;37.60;;
47309;SDS011;33046;52.270;6.832;2024-03-06T07:22:30;51.45;;;34.53;;
47309;SDS011;33046;52.270;6.832;2024-03-06T07:24:38;53.80;;;35.15;;
47309;SDS011;33046;52.270;6.832;2024-03-06T07:26:45;50.22;;;34.92;;
47309;SDS011;33046;52.270;6.832;2024-03-06T07:28:51;53.20;;;36.25;;
47309;SDS011;33046;52.270;6.832;2024-03-06T07:30:58;49.50;;;36.78;;
47309;SDS011;33046;52.270;6.832;2024-03-06T07:33:05;57.92;;;36.95;;
47309;SDS011;33046;52.270;6.832;2024-03-06T07:35:12;54.70;;;35.25;;
47309;SDS011;33046;52.270;6.832;2024-03-06T07:37:19;50.88;;;35.15;;
47309;SDS011;33046;52.270;6.832;2024-03-06T07:39:26;54.50;;;34.35;;
47309;SDS011;33046;52.270;6.832;2024-03-06T07:41:34;50.58;;;35.50;;
47309;SDS011;33046;52.270;6.832;2024-03-06T07:43:41;63.92;;;37.70;;
47309;SDS011;33046;52.270;6.832;2024-03-06T07:45:48;58.25;;;37.28;;
47309;SDS011;33046;52.270;6.832;2024-03-06T07:47:55;55.90;;;39.72;;
47309;SDS011;33046;52.270;6.832;2024-03-06T07:50:02;58.22;;;38.60;;
47309;SDS011;33046;52.270;6.832;2024-03-06T07:52:09;61.63;;;36.38;;
47309;SDS011;33046;52.270;6.832;2024-03-06T07:54:16;52.72;;;36.28;;
47309;SDS011;33046;52.270;6.832;2024-03-06T07:56:23;51.97;;;35.95;;
47309;SDS011;33046;52.270;6.832;2024-03-06T07:58:32;57.97;;;36.75;;
47309;SDS011;33046;52.270;6.832;2024-03-06T08:00:39;61.03;;;37.42;;
47309;SDS011;33046;52.270;6.832;2024-03-06T08:02:46;61.20;;;37.60;;
47309;SDS011;33046;52.270;6.832;2024-03-06T08:04:52;54.78;;;36.25;;
47309;SDS011;33046;52.270;6.832;2024-03-06T08:06:59;61.42;;;36.05;;
47309;SDS011;33046;52.270;6.832;2024-03-06T08:09:06;54.03;;;36.28;;
47309;SDS011;33046;52.270;6.832;2024-03-06T08:11:13;59.65;;;38.30;;
47309;SDS011;33046;52.270;6.832;2024-03-06T08:13:20;63.97;;;38.90;;
47309;SDS011;33046;52.270;6.832;2024-03-06T08:15:28;59.42;;;37.33;;
47309;SDS011;33046;52.270;6.832;2024-03-06T08:17:35;64.68;;;36.53;;
47309;SDS011;33046;52.270;6.832;2024-03-06T08:19:42;55.10;;;37.88;;
47309;SDS011;33046;52.270;6.832;2024-03-06T08:21:49;53.42;;;36.75;;
47309;SDS011;33046;52.270;6.832;2024-03-06T08:23:56;72.40;;;37.60;;
47309;SDS011;33046;52.270;6.832;2024-03-06T08:26:03;54.95;;;36.90;;
47309;SDS011;33046;52.270;6.832;2024-03-06T08:28:10;49.22;;;34.05;;
47309;SDS011;33046;52.270;6.832;2024-03-06T08:30:16;51.15;;;34.80;;
47309;SDS011;33046;52.270;6.832;2024-03-06T08:32:25;47.40;;;33.15;;
47309;SDS011;33046;52.270;6.832;2024-03-06T08:34:32;50.83;;;34.83;;
47309;SDS011;33046;52.270;6.832;2024-03-06T08:36:38;46.25;;;33.83;;
47309;SDS011;33046;52.270;6.832;2024-03-06T08:38:45;40.00;;;32.45;;
47309;SDS011;33046;52.270;6.832;2024-03-06T08:40:52;49.63;;;33.25;;
47309;SDS011;33046;52.270;6.832;2024-03-06T08:42:59;44.47;;;33.40;;
47309;SDS011;33046;52.270;6.832;2024-03-06T08:45:06;47.38;;;33.35;;
47309;SDS011;33046;52.270;6.832;2024-03-06T08:47:13;40.95;;;32.20;;
47309;SDS011;33046;52.270;6.832;2024-03-06T08:49:21;41.83;;;30.05;;
47309;SDS011;33046;52.270;6.832;2024-03-06T08:51:28;40.05;;;32.70;;
47309;SDS011;33046;52.270;6.832;2024-03-06T08:53:35;46.33;;;33.15;;
47309;SDS011;33046;52.270;6.832;2024-03-06T08:55:42;46.15;;;32.88;;
47309;SDS011;33046;52.270;6.832;2024-03-06T08:57:49;50.60;;;34.65;;
47309;SDS011;33046;52.270;6.832;2024-03-06T08:59:56;47.67;;;33.70;;
47309;SDS011;33046;52.270;6.832;2024-03-06T09:02:11;51.63;;;34.63;;
47309;SDS011;33046;52.270;6.832;2024-03-06T09:04:19;44.70;;;32.58;;
47309;SDS011;33046;52.270;6.832;2024-03-06T09:06:27;47.30;;;32.70;;
47309;SDS011;33046;52.270;6.832;2024-03-06T09:08:34;47.60;;;31.88;;
47309;SDS011;33046;52.270;6.832;2024-03-06T09:10:41;48.00;;;32.78;;
47309;SDS011;33046;52.270;6.832;2024-03-06T09:12:48;41.28;;;32.03;;
47309;SDS011;33046;52.270;6.832;2024-03-06T09:14:54;42.20;;;29.83;;
47309;SDS011;33046;52.270;6.832;2024-03-06T09:17:01;44.53;;;33.97;;
47309;SDS011;33046;52.270;6.832;2024-03-06T09:19:08;48.08;;;34.00;;
47309;SDS011;33046;52.270;6.832;2024-03-06T09:21:15;47.22;;;33.55;;
47309;SDS011;33046;52.270;6.832;2024-03-06T09:23:23;44.85;;;31.58;;
47309;SDS011;33046;52.270;6.832;2024-03-06T09:25:30;48.90;;;34.03;;
47309;SDS011;33046;52.270;6.832;2024-03-06T09:27:37;41.75;;;30.50;;
47309;SDS011;33046;52.270;6.832;2024-03-06T09:29:44;47.58;;;32.13;;
47309;SDS011;33046;52.270;6.832;2024-03-06T09:31:51;42.15;;;30.38;;
47309;SDS011;33046;52.270;6.832;2024-03-06T09:33:58;41.70;;;31.27;;
47309;SDS011;33046;52.270;6.832;2024-03-06T09:36:05;44.33;;;30.67;;
47309;SDS011;33046;52.270;6.832;2024-03-06T09:38:13;42.88;;;31.30;;
47309;SDS011;33046;52.270;6.832;2024-03-06T09:40:22;38.72;;;30.67;;
47309;SDS011;33046;52.270;6.832;2024-03-06T09:42:30;41.75;;;31.98;;
47309;SDS011;33046;52.270;6.832;2024-03-06T09:44:37;39.58;;;32.17;;
47309;SDS011;33046;52.270;6.832;2024-03-06T09:46:44;41.83;;;29.95;;
47309;SDS011;33046;52.270;6.832;2024-03-06T09:48:52;37.78;;;28.05;;
47309;SDS011;33046;52.270;6.832;2024-03-06T09:51:00;38.08;;;30.30;;
47309;SDS011;33046;52.270;6.832;2024-03-06T09:53:08;42.20;;;29.05;;
47309;SDS011;33046;52.270;6.832;2024-03-06T09:55:18;41.35;;;30.23;;
47309;SDS011;33046;52.270;6.832;2024-03-06T09:57:27;38.38;;;29.73;;
47309;SDS011;33046;52.270;6.832;2024-03-06T09:59:34;35.72;;;28.42;;
47309;SDS011;33046;52.270;6.832;2024-03-06T10:01:49;38.95;;;27.92;;
47309;SDS011;33046;52.270;6.832;2024-03-06T10:03:59;45.00;;;26.85;;
47309;SDS011;33046;52.270;6.832;2024-03-06T10:06:22;36.60;;;26.65;;
47309;SDS011;33046;52.270;6.832;2024-03-06T10:08:29;36.78;;;27.95;;
47309;SDS011;33046;52.270;6.832;2024-03-06T10:10:36;39.92;;;28.33;;
47309;SDS011;33046;52.270;6.832;2024-03-06T10:12:45;39.92;;;28.52;;
47309;SDS011;33046;52.270;6.832;2024-03-06T10:14:52;36.20;;;27.85;;
47309;SDS011;33046;52.270;6.832;2024-03-06T10:16:59;36.92;;;28.30;;
47309;SDS011;33046;52.270;6.832;2024-03-06T10:19:16;38.75;;;28.95;;
47309;SDS011;33046;52.270;6.832;2024-03-06T10:21:29;36.78;;;26.40;;
47309;SDS011;33046;52.270;6.832;2024-03-06T10:23:36;39.13;;;28.45;;
47309;SDS011;33046;52.270;6.832;2024-03-06T10:25:44;33.95;;;27.25;;
47309;SDS011;33046;52.270;6.832;2024-03-06T10:32:21;33.80;;;25.50;;
47309;SDS011;33046;52.270;6.832;2024-03-06T10:34:28;42.25;;;27.98;;
47309;SDS011;33046;52.270;6.832;2024-03-06T10:36:35;40.80;;;28.10;;
47309;SDS011;33046;52.270;6.832;2024-03-06T10:38:43;38.47;;;28.25;;
47309;SDS011;33046;52.270;6.832;2024-03-06T10:40:50;37.17;;;27.65;;
47309;SDS011;33046;52.270;6.832;2024-03-06T10:42:58;38.03;;;27.50;;
47309;SDS011;33046;52.270;6.832;2024-03-06T10:45:07;38.28;;;27.33;;
47309;SDS011;33046;52.270;6.832;2024-03-06T10:47:16;34.97;;;27.25;;
47309;SDS011;33046;52.270;6.832;2024-03-06T10:49:24;38.15;;;26.90;;
47309;SDS011;33046;52.270;6.832;2024-03-06T10:51:32;38.75;;;27.83;;
47309;SDS011;33046;52.270;6.832;2024-03-06T10:53:39;34.83;;;26.60;;
47309;SDS011;33046;52.270;6.832;2024-03-06T10:55:47;33.67;;;24.88;;
47309;SDS011;33046;52.270;6.832;2024-03-06T10:57:56;36.45;;;26.58;;
47309;SDS011;33046;52.270;6.832;2024-03-06T11:00:04;37.97;;;26.33;;
47309;SDS011;33046;52.270;6.832;2024-03-06T11:02:14;32.30;;;25.50;;
47309;SDS011;33046;52.270;6.832;2024-03-06T11:04:22;32.70;;;25.23;;
47309;SDS011;33046;52.270;6.832;2024-03-06T11:06:31;33.70;;;24.92;;
47309;SDS011;33046;52.270;6.832;2024-03-06T11:08:38;33.83;;;26.77;;
47309;SDS011;33046;52.270;6.832;2024-03-06T11:10:45;36.38;;;26.02;;
47309;SDS011;33046;52.270;6.832;2024-03-06T11:12:52;40.03;;;24.98;;
47309;SDS011;33046;52.270;6.832;2024-03-06T11:14:59;37.92;;;28.10;;
47309;SDS011;33046;52.270;6.832;2024-03-06T11:17:08;35.67;;;26.20;;
47309;SDS011;33046;52.270;6.832;2024-03-06T11:19:15;35.20;;;26.20;;
47309;SDS011;33046;52.270;6.832;2024-03-06T11:21:28;31.52;;;24.10;;
47309;SDS011;33046;52.270;6.832;2024-03-06T11:26:02;39.72;;;27.30;;
47309;SDS011;33046;52.270;6.832;2024-03-06T11:28:10;32.65;;;25.55;;
47309;SDS011;33046;52.270;6.832;2024-03-06T11:30:18;31.85;;;24.02;;
47309;SDS011;33046;52.270;6.832;2024-03-06T11:32:27;31.90;;;25.27;;
47309;SDS011;33046;52.270;6.832;2024-03-06T11:34:35;33.40;;;25.27;;
47309;SDS011;33046;52.270;6.832;2024-03-06T11:36:42;33.20;;;25.20;;
47309;SDS011;33046;52.270;6.832;2024-03-06T11:38:52;34.28;;;25.55;;
47309;SDS011;33046;52.270;6.832;2024-03-06T11:41:01;38.80;;;27.80;;
47309;SDS011;33046;52.270;6.832;2024-03-06T11:43:23;36.38;;;26.30;;
47309;SDS011;33046;52.270;6.832;2024-03-06T11:45:31;35.45;;;27.25;;
47309;SDS011;33046;52.270;6.832;2024-03-06T11:50:05;34.65;;;24.73;;
47309;SDS011;33046;52.270;6.832;2024-03-06T11:52:15;35.35;;;26.23;;
47309;SDS011;33046;52.270;6.832;2024-03-06T11:54:22;36.53;;;25.50;;
47309;SDS011;33046;52.270;6.832;2024-03-06T11:56:29;36.42;;;27.60;;
47309;SDS011;33046;52.270;6.832;2024-03-06T11:58:36;32.42;;;25.20;;
47309;SDS011;33046;52.270;6.832;2024-03-06T12:00:43;31.95;;;24.42;;
47309;SDS011;33046;52.270;6.832;2024-03-06T12:02:50;36.17;;;25.75;;
47309;SDS011;33046;52.270;6.832;2024-03-06T12:05:01;35.17;;;25.58;;
47309;SDS011;33046;52.270;6.832;2024-03-06T12:07:08;33.83;;;24.45;;
47309;SDS011;33046;52.270;6.832;2024-03-06T12:09:15;30.95;;;25.25;;
47309;SDS011;33046;52.270;6.832;2024-03-06T12:11:22;38.67;;;26.73;;
47309;SDS011;33046;52.270;6.832;2024-03-06T12:13:29;39.47;;;26.15;;
47309;SDS011;33046;52.270;6.832;2024-03-06T12:15:36;36.40;;;28.63;;
47309;SDS011;33046;52.270;6.832;2024-03-06T12:17:43;36.45;;;25.75;;
47309;SDS011;33046;52.270;6.832;2024-03-06T12:19:50;35.72;;;25.00;;
47309;SDS011;33046;52.270;6.832;2024-03-06T12:22:02;33.47;;;25.55;;
47309;SDS011;33046;52.270;6.832;2024-03-06T12:24:10;35.10;;;25.95;;
47309;SDS011;33046;52.270;6.832;2024-03-06T12:26:17;29.27;;;25.05;;
47309;SDS011;33046;52.270;6.832;2024-03-06T12:28:29;30.80;;;23.10;;
47309;SDS011;33046;52.270;6.832;2024-03-06T12:30:39;34.50;;;25.98;;
47309;SDS011;33046;52.270;6.832;2024-03-06T12:32:55;35.15;;;25.95;;
47309;SDS011;33046;52.270;6.832;2024-03-06T12:35:03;30.13;;;23.70;;
47309;SDS011;33046;52.270;6.832;2024-03-06T12:37:12;29.02;;;23.30;;
47309;SDS011;33046;52.270;6.832;2024-03-06T12:39:19;28.20;;;23.75;;
47309;SDS011;33046;52.270;6.832;2024-03-06T12:41:26;30.35;;;22.88;;
47309;SDS011;33046;52.270;6.832;2024-03-06T12:43:32;31.73;;;24.00;;